Paris, Missouri
Current Conditions -  °F | °C
As of 10:55 AM on Thursday 27 Nov 2014 (Local Time) from KHAE Reporting Station
Scattered Clouds Scattered Clouds  
Wind Chill: -6°   Ceiling: Unl
Heat Index: -1°   Visibility: 10mi
Dew Point: -8°   Wind: 9mph
Humidity: 60%   Direction: 290°WNW
Pressure: 30.48"   Gusts: NA
Location:  39.48°N, 92°W
Report Text: KHAE 271655Z AUTO 29008KT 10SM SCT020 M01/M08 A3048 RMK AO2
Loading
Personal Weather Stations






























Interactive Weather Map New forecast layout! Learn more

10-Day Weather Forecast

Advertisements
Track Severe Weather on mobile